Teno — A8VP7 — position and weather

sailwx.info

Track history (hours):
 
Tides and Currents Weather Stations Pressure Air Temp Water Temp Dewpoint Dewpoint Depression Visibility Wind Speed Wind Dir Waves Ship Positions

Teno

Last reported at 2018-Jun-24 00:58 UTC. Time now 2018-Jun-24 09:17 UTC.
Position N 34°14' W 074°37'.

Length 299 m; draft 12.7 m.

Type: Ship (hazmat cat A). MMSI: 636014646.

Date/timePositionNaut miles runAvg speedWind from/ knotsBaromVisibWave heightAir tempDewpointWater temp
2018-Jun-24 00:58N 34°14' W 074°37'4315.8
2018-Jun-23 22:14N 33°57' W 075°25'715.5
2018-Jun-23 21:48N 33°54' W 075°33'815.8
2018-Jun-23 21:18N 33°50' W 075°41'516.0
2018-Jun-23 20:57N 33°48' W 075°47'715.9
2018-Jun-23 20:30N 33°45' W 075°55'815.8
2018-Jun-23 20:00N 33°43' W 076°04'815.8
2018-Jun-23 19:30N 33°40' W 076°13'1715.8
2018-Jun-23 18:27N 33°33' W 076°31'17013.7
2018-Jun-23 06:03N 32°42' W 079°45'215.1
2018-Jun-23 05:55N 32°43' W 079°47'512.4
2018-Jun-23 05:31N 32°46' W 079°52'4 7.8
2018-Jun-23 05:00N 32°49' W 079°54'1 1.9
2018-Jun-23 04:29N 32°50' W 079°54'0 0.0
2018-Jun-23 03:59N 32°50' W 079°54'0 0.0
2018-Jun-23 03:29N 32°50' W 079°54'0 0.0
2018-Jun-23 02:59N 32°50' W 079°54'0 0.0
2018-Jun-23 02:26N 32°50' W 079°54'0 0.0
2018-Jun-23 01:59N 32°50' W 079°54'0 0.0
2018-Jun-23 01:29N 32°50' W 079°54'0 0.0
2018-Jun-23 00:59N 32°50' W 079°54'0 0.0
2018-Jun-23 00:29N 32°50' W 079°54'0 0.0
2018-Jun-22 23:59N 32°50' W 079°54'0 0.0
2018-Jun-22 23:29N 32°50' W 079°54'0 0.0
2018-Jun-22 22:59N 32°50' W 079°54'0 0.0
2018-Jun-22 22:29N 32°50' W 079°54'0 0.0
2018-Jun-22 21:59N 32°50' W 079°54'0 0.0
2018-Jun-22 21:29N 32°50' W 079°54'0 0.0
2018-Jun-22 20:59N 32°50' W 079°54'0 0.0
2018-Jun-22 20:29N 32°50' W 079°54'0 0.0
2018-Jun-22 19:59N 32°50' W 079°54'0 0.0
2018-Jun-22 19:29N 32°50' W 079°54'0 0.0
2018-Jun-22 18:59N 32°50' W 079°54'0 0.0
2018-Jun-22 18:29N 32°50' W 079°54'0 0.0
2018-Jun-22 17:59N 32°50' W 079°54'0 0.0
2018-Jun-22 17:29N 32°50' W 079°54'0 0.0
2018-Jun-22 16:59N 32°50' W 079°54'0 0.0
2018-Jun-22 16:29N 32°50' W 079°54'0 0.0
2018-Jun-22 15:59N 32°50' W 079°54'0 0.0
2018-Jun-22 15:26N 32°50' W 079°54'0 0.0
2018-Jun-22 14:59N 32°50' W 079°54'0 0.0
2018-Jun-22 14:29N 32°50' W 079°54'0 0.0
2018-Jun-22 13:59N 32°50' W 079°54'0 0.0
2018-Jun-22 13:29N 32°50' W 079°54'0 0.0
2018-Jun-22 12:59N 32°50' W 079°54'0 0.0
2018-Jun-22 12:29N 32°50' W 079°54'0 0.0
2018-Jun-22 11:59N 32°50' W 079°54'0 0.1
2018-Jun-22 11:30N 32°50' W 079°54'1 2.6
2018-Jun-22 11:01N 32°49' W 079°55'4 8.9
2018-Jun-22 10:30N 32°45' W 079°52'814.2
2018-Jun-22 09:59N 32°41' W 079°44'612.4
2018-Jun-22 09:28N 32°38' W 079°38'4 5.2
2018-Jun-22 08:46N 32°37' W 079°34'2 0.6
2018-Jun-22 05:32N 32°36' W 079°32'0 0.0
2018-Jun-22 05:26N 32°36' W 079°32'0 0.0
2018-Jun-22 04:56N 32°36' W 079°32'0 0.0
2018-Jun-22 04:26N 32°36' W 079°32'0 0.0
2018-Jun-22 03:38N 32°36' W 079°32'0 0.0
2018-Jun-22 03:26N 32°36' W 079°32'0 0.0
2018-Jun-22 02:44N 32°36' W 079°32'0 0.0
2018-Jun-22 02:26N 32°36' W 079°32'0 0.0
2018-Jun-22 01:56N 32°36' W 079°32'0 0.1
2018-Jun-22 01:20N 32°36' W 079°32'0 0.0
2018-Jun-22 00:56N 32°36' W 079°32'0 0.1
2018-Jun-22 00:20N 32°36' W 079°32'0 0.0
2018-Jun-21 23:56N 32°36' W 079°32'0 0.0
2018-Jun-21 23:26N 32°36' W 079°32'0 0.0
2018-Jun-21 22:59N 32°36' W 079°32'0 0.0
2018-Jun-21 22:26N 32°36' W 079°32'0 0.0
2018-Jun-21 21:59N 32°36' W 079°32'0 0.0
2018-Jun-21 21:26N 32°36' W 079°32'0 0.0
2018-Jun-20 23:26N 32°36' W 079°32'711.3
2018-Jun-20 22:49N 32°29' W 079°34'516.0
2018-Jun-20 22:30N 32°24' W 079°35'815.3
2018-Jun-20 22:00N 32°18' W 079°39'1516.9
2018-Jun-20 21:08N 32°10' W 079°54'217.1
2018-Jun-20 21:00N 32°09' W 079°56'917.4
2018-Jun-20 20:30N 32°04' W 080°05'917.3
2018-Jun-20 20:00N 31°60' W 080°13'816.4
2018-Jun-20 19:29N 31°57' W 080°23'816.9
2018-Jun-20 19:00N 31°56' W 080°32'815.3
2018-Jun-20 18:29N 31°58' W 080°42'612.5
2018-Jun-20 18:00N 32°01' W 080°48'611.6
2018-Jun-20 17:28N 32°02' W 080°55'510.2
2018-Jun-20 17:00N 32°05' W 080°59'3 6.9
2018-Jun-20 16:30N 32°05' W 081°03'2 4.4
2018-Jun-20 15:59N 32°05' W 081°06'3 5.6
2018-Jun-20 15:30N 32°07' W 081°08'0 0.0
2018-Jun-19 11:10N 32°08' W 081°08'0 0.1
2018-Jun-19 11:00N 32°08' W 081°08'0 0.5
2018-Jun-19 10:30N 32°08' W 081°08'3 5.3
2018-Jun-19 10:00N 32°06' W 081°06'2 4.0
2018-Jun-19 09:30N 32°05' W 081°04'3 5.5
2018-Jun-19 09:00N 32°06' W 081°01'4 7.3
2018-Jun-19 08:30N 32°04' W 080°57'4 7.9
2018-Jun-19 08:00N 32°02' W 080°53'611.2
2018-Jun-19 07:30N 31°60' W 080°47'612.5
2018-Jun-19 06:59N 31°57' W 080°40'5 9.5
2018-Jun-19 06:30N 31°56' W 080°35'4 8.4
2018-Jun-19 06:00N 31°59' W 080°31'712.9
2018-Jun-19 05:27N 31°58' W 080°22'614.2
2018-Jun-19 05:00N 31°58' W 080°15'714.2
2018-Jun-19 04:29N 31°60' W 080°06'714.4
2018-Jun-19 04:00N 32°00' W 079°58'814.4
2018-Jun-19 03:28N 32°01' W 079°49'1014.4
2018-Jun-19 02:46N 32°03' W 079°37'3114.2
2018-Jun-19 00:37N 32°19' W 079°07'31113.3
2018-Jun-18 01:07N 36°32' W 075°27'715.3
2018-Jun-18 00:39N 36°37' W 075°33'315.2
2018-Jun-18 00:28N 36°39' W 075°35'715.3
2018-Jun-18 00:00N 36°45' W 075°40'611.9
2018-Jun-17 23:30N 36°48' W 075°46'2913.4
2018-Jun-17 21:22N 36°57' W 076°20'2 5.3
2018-Jun-17 21:00N 36°55' W 076°20'0 0.1
2018-Jun-17 20:27N 36°55' W 076°20'0 0.0
2018-Jun-17 20:00N 36°55' W 076°20'0 0.0
2018-Jun-17 19:30N 36°55' W 076°20'0 0.0
2018-Jun-17 19:01N 36°55' W 076°20'0 0.0
2018-Jun-17 18:31N 36°55' W 076°20'0 0.0
2018-Jun-17 15:27N 36°55' W 076°20'0 0.0
2018-Jun-17 15:01N 36°55' W 076°20'0 0.0
2018-Jun-17 12:58N 36°55' W 076°20'0 0.0
2018-Jun-17 12:25N 36°55' W 076°20'0 0.0
2018-Jun-17 12:01N 36°55' W 076°20'0 0.0
2018-Jun-17 11:27N 36°55' W 076°20'0 0.0
2018-Jun-17 10:57N 36°55' W 076°20'0 0.0
2018-Jun-17 09:34N 36°55' W 076°20'0 0.0
2018-Jun-17 09:16N 36°55' W 076°20'0 0.0
2018-Jun-17 07:21N 36°55' W 076°20'0 0.0
2018-Jun-17 06:58N 36°55' W 076°20'0 0.0
2018-Jun-17 06:09N 36°55' W 076°20'0 0.0
2018-Jun-17 06:01N 36°55' W 076°20'0 0.0
2018-Jun-17 05:31N 36°55' W 076°20'0 0.0
2018-Jun-17 05:01N 36°55' W 076°20'0 0.0
2018-Jun-17 04:30N 36°55' W 076°20'0 0.0
2018-Jun-17 04:01N 36°55' W 076°20'0 0.0
2018-Jun-17 03:31N 36°55' W 076°20'0 0.0
2018-Jun-17 03:01N 36°55' W 076°20'0 0.0
2018-Jun-17 02:31N 36°55' W 076°20'0 0.0
2018-Jun-17 02:00N 36°55' W 076°20'0 0.0
2018-Jun-17 01:31N 36°55' W 076°20'0 0.0
2018-Jun-17 01:00N 36°55' W 076°20'1 2.7
2018-Jun-17 00:30N 36°57' W 076°20'1011.6
2018-Jun-16 23:38N 36°59' W 076°08'112 9.3
2018-Jun-16 11:35N 38°04' W 074°13'1213.0
2018-Jun-16 10:39N 38°16' W 074°08'212.9
2018-Jun-16 10:31N 38°18' W 074°07'612.8
2018-Jun-16 10:00N 38°24' W 074°05'612.9
2018-Jun-16 09:31N 38°30' W 074°02'3812.7
2018-Jun-16 06:33N 39°07' W 073°52'113.2
2018-Jun-16 06:27N 39°08' W 073°52'1313.1
2018-Jun-16 05:28N 39°21' W 073°52'612.9
2018-Jun-16 04:59N 39°27' W 073°52'612.9
2018-Jun-16 04:30N 39°33' W 073°52'612.9
2018-Jun-16 04:00N 39°40' W 073°52'612.8
2018-Jun-16 03:30N 39°46' W 073°52'712.7
2018-Jun-16 02:59N 39°53' W 073°51'812.8
2018-Jun-16 02:20N 40°01' W 073°51'2412.8
2018-Jun-16 00:27N 40°25' W 073°49'511.7
2018-Jun-16 00:00N 40°29' W 073°54'714.7
2018-Jun-15 23:31N 40°33' W 074°02'713.1
2018-Jun-15 23:00N 40°39' W 074°04'4 7.0
2018-Jun-15 22:30N 40°39' W 074°09'1 2.9
2018-Jun-15 22:00N 40°40' W 074°09'0 0.1
2018-Jun-15 21:30N 40°40' W 074°09'0 0.0
2018-Jun-15 21:00N 40°40' W 074°09'0 0.0
2018-Jun-15 20:30N 40°40' W 074°09'0 0.0
2018-Jun-15 20:00N 40°40' W 074°09'0 0.0
2018-Jun-15 19:24N 40°40' W 074°09'0 0.0
2018-Jun-15 19:00N 40°40' W 074°09'0 0.0
2018-Jun-15 18:30N 40°40' W 074°09'0 0.0
2018-Jun-15 18:00N 40°40' W 074°09'0 0.0
2018-Jun-15 17:30N 40°40' W 074°09'0 0.0
2018-Jun-15 17:00N 40°40' W 074°09'0 0.0
2018-Jun-15 16:24N 40°40' W 074°09'0 0.0
2018-Jun-15 16:00N 40°40' W 074°09'0 0.0
2018-Jun-15 15:30N 40°40' W 074°09'0 0.0
2018-Jun-15 15:00N 40°40' W 074°09'0 0.0
2018-Jun-15 14:30N 40°40' W 074°09'0 0.0
2018-Jun-15 14:00N 40°40' W 074°09'0 0.0
2018-Jun-15 13:30N 40°40' W 074°09'0 0.0
2018-Jun-15 12:54N 40°40' W 074°09'0 0.0
2018-Jun-15 12:27N 40°40' W 074°09'0 0.0
2018-Jun-15 12:00N 40°40' W 074°09'0 0.0
2018-Jun-15 11:24N 40°40' W 074°09'0 0.0
2018-Jun-15 10:57N 40°40' W 074°09'0 0.0
2018-Jun-15 10:30N 40°40' W 074°09'0 0.0
2018-Jun-15 10:00N 40°40' W 074°09'0 0.0
2018-Jun-15 09:30N 40°40' W 074°09'0 0.0
2018-Jun-15 09:00N 40°40' W 074°09'0 0.0
2018-Jun-15 08:30N 40°40' W 074°09'0 0.0
2018-Jun-15 08:00N 40°40' W 074°09'0 0.0
2018-Jun-15 07:30N 40°40' W 074°09'0 0.0
2018-Jun-15 06:57N 40°40' W 074°09'0 0.0
2018-Jun-15 06:24N 40°40' W 074°09'0 0.0
2018-Jun-15 06:00N 40°40' W 074°09'0 0.0
2018-Jun-15 05:30N 40°40' W 074°09'0 0.0
2018-Jun-15 05:00N 40°40' W 074°09'0 0.0
2018-Jun-15 04:30N 40°40' W 074°09'0 0.0
2018-Jun-15 04:00N 40°40' W 074°09'0 0.0
2018-Jun-15 03:30N 40°40' W 074°09'0 0.0
2018-Jun-15 03:00N 40°40' W 074°09'0 0.0
2018-Jun-15 02:27N 40°40' W 074°09'0 0.0
2018-Jun-15 02:00N 40°40' W 074°09'0 0.0
2018-Jun-15 01:27N 40°40' W 074°09'0 0.0
2018-Jun-15 01:00N 40°40' W 074°09'0 0.0
2018-Jun-15 00:30N 40°40' W 074°09'0 0.0
2018-Jun-15 00:00N 40°40' W 074°09'0 0.0
2018-Jun-14 23:30N 40°40' W 074°09'0 0.0
2018-Jun-14 23:00N 40°40' W 074°09'0 0.0
2018-Jun-14 22:30N 40°40' W 074°09'0 0.0
2018-Jun-14 22:00N 40°40' W 074°09'0 0.0
2018-Jun-14 21:30N 40°40' W 074°09'0 0.0
2018-Jun-14 21:00N 40°40' W 074°09'0 0.0
2018-Jun-14 20:30N 40°40' W 074°09'0 0.0
2018-Jun-14 20:00N 40°40' W 074°09'0 0.0
2018-Jun-14 19:30N 40°40' W 074°09'0 0.0
2018-Jun-14 19:00N 40°40' W 074°09'0 0.0
2018-Jun-14 18:30N 40°40' W 074°09'0 0.0
2018-Jun-14 18:00N 40°40' W 074°09'0 0.0
2018-Jun-14 17:30N 40°40' W 074°09'0 0.0
2018-Jun-14 17:00N 40°40' W 074°09'0 0.1
2018-Jun-14 16:30N 40°40' W 074°09'1 2.9
2018-Jun-14 16:00N 40°39' W 074°08'3 5.7
2018-Jun-14 15:30N 40°39' W 074°04'3 6.4
2018-Jun-14 15:00N 40°36' W 074°02'2 4.9
2018-Jun-14 14:30N 40°34' W 074°02'4 8.2
2018-Jun-14 14:00N 40°31' W 073°58'4 8.9
2018-Jun-14 13:30N 40°29' W 073°53'5 8.6
2018-Jun-14 12:57N 40°27' W 073°47'3 1.0
2018-Jun-14 10:01N 40°29' W 073°46'0 0.3
2018-Jun-14 09:58N 40°29' W 073°46'4 7.7
2018-Jun-14 09:28N 40°28' W 073°42'5 8.9
2018-Jun-14 08:53N 40°28' W 073°35'512.7
2018-Jun-14 08:28N 40°28' W 073°28'  
Track history (hours):
 
Tides and Currents Weather Stations Pressure Air Temp Water Temp Dewpoint Dewpoint Depression Visibility Wind Speed Wind Dir Waves Ship Positions

Teno

Last reported at 2018-Jun-24 00:58 UTC. Time now 2018-Jun-24 09:17 UTC.
Position N 34°14' W 074°37'.

Length 299 m; draft 12.7 m.

Type: Ship (hazmat cat A). MMSI: 636014646.

Date/timePositionNaut miles runAvg speedWind from/ knotsBaromVisibWave heightAir tempDewpointWater temp
2018-Jun-24 00:58N 34°14' W 074°37'4315.8
2018-Jun-23 22:14N 33°57' W 075°25'715.5
2018-Jun-23 21:48N 33°54' W 075°33'815.8
2018-Jun-23 21:18N 33°50' W 075°41'516.0
2018-Jun-23 20:57N 33°48' W 075°47'715.9
2018-Jun-23 20:30N 33°45' W 075°55'815.8
2018-Jun-23 20:00N 33°43' W 076°04'815.8
2018-Jun-23 19:30N 33°40' W 076°13'1715.8
2018-Jun-23 18:27N 33°33' W 076°31'17013.7
2018-Jun-23 06:03N 32°42' W 079°45'215.1
2018-Jun-23 05:55N 32°43' W 079°47'512.4
2018-Jun-23 05:31N 32°46' W 079°52'4 7.8
2018-Jun-23 05:00N 32°49' W 079°54'1 1.9
2018-Jun-23 04:29N 32°50' W 079°54'0 0.0
2018-Jun-23 03:59N 32°50' W 079°54'0 0.0
2018-Jun-23 03:29N 32°50' W 079°54'0 0.0
2018-Jun-23 02:59N 32°50' W 079°54'0 0.0
2018-Jun-23 02:26N 32°50' W 079°54'0 0.0
2018-Jun-23 01:59N 32°50' W 079°54'0 0.0
2018-Jun-23 01:29N 32°50' W 079°54'0 0.0
2018-Jun-23 00:59N 32°50' W 079°54'0 0.0
2018-Jun-23 00:29N 32°50' W 079°54'0 0.0
2018-Jun-22 23:59N 32°50' W 079°54'0 0.0
2018-Jun-22 23:29N 32°50' W 079°54'0 0.0
2018-Jun-22 22:59N 32°50' W 079°54'0 0.0
2018-Jun-22 22:29N 32°50' W 079°54'0 0.0
2018-Jun-22 21:59N 32°50' W 079°54'0 0.0
2018-Jun-22 21:29N 32°50' W 079°54'0 0.0
2018-Jun-22 20:59N 32°50' W 079°54'0 0.0
2018-Jun-22 20:29N 32°50' W 079°54'0 0.0
2018-Jun-22 19:59N 32°50' W 079°54'0 0.0
2018-Jun-22 19:29N 32°50' W 079°54'0 0.0
2018-Jun-22 18:59N 32°50' W 079°54'0 0.0
2018-Jun-22 18:29N 32°50' W 079°54'0 0.0
2018-Jun-22 17:59N 32°50' W 079°54'0 0.0
2018-Jun-22 17:29N 32°50' W 079°54'0 0.0
2018-Jun-22 16:59N 32°50' W 079°54'0 0.0
2018-Jun-22 16:29N 32°50' W 079°54'0 0.0
2018-Jun-22 15:59N 32°50' W 079°54'0 0.0
2018-Jun-22 15:26N 32°50' W 079°54'0 0.0
2018-Jun-22 14:59N 32°50' W 079°54'0 0.0
2018-Jun-22 14:29N 32°50' W 079°54'0 0.0
2018-Jun-22 13:59N 32°50' W 079°54'0 0.0
2018-Jun-22 13:29N 32°50' W 079°54'0 0.0
2018-Jun-22 12:59N 32°50' W 079°54'0 0.0
2018-Jun-22 12:29N 32°50' W 079°54'0 0.0
2018-Jun-22 11:59N 32°50' W 079°54'0 0.1
2018-Jun-22 11:30N 32°50' W 079°54'1 2.6
2018-Jun-22 11:01N 32°49' W 079°55'4 8.9
2018-Jun-22 10:30N 32°45' W 079°52'814.2
2018-Jun-22 09:59N 32°41' W 079°44'612.4
2018-Jun-22 09:28N 32°38' W 079°38'4 5.2
2018-Jun-22 08:46N 32°37' W 079°34'2 0.6
2018-Jun-22 05:32N 32°36' W 079°32'0 0.0
2018-Jun-22 05:26N 32°36' W 079°32'0 0.0
2018-Jun-22 04:56N 32°36' W 079°32'0 0.0
2018-Jun-22 04:26N 32°36' W 079°32'0 0.0
2018-Jun-22 03:38N 32°36' W 079°32'0 0.0
2018-Jun-22 03:26N 32°36' W 079°32'0 0.0
2018-Jun-22 02:44N 32°36' W 079°32'0 0.0
2018-Jun-22 02:26N 32°36' W 079°32'0 0.0
2018-Jun-22 01:56N 32°36' W 079°32'0 0.1
2018-Jun-22 01:20N 32°36' W 079°32'0 0.0
2018-Jun-22 00:56N 32°36' W 079°32'0 0.1
2018-Jun-22 00:20N 32°36' W 079°32'0 0.0
2018-Jun-21 23:56N 32°36' W 079°32'0 0.0
2018-Jun-21 23:26N 32°36' W 079°32'0 0.0
2018-Jun-21 22:59N 32°36' W 079°32'0 0.0
2018-Jun-21 22:26N 32°36' W 079°32'0 0.0
2018-Jun-21 21:59N 32°36' W 079°32'0 0.0
2018-Jun-21 21:26N 32°36' W 079°32'0 0.0
2018-Jun-20 23:26N 32°36' W 079°32'711.3
2018-Jun-20 22:49N 32°29' W 079°34'516.0
2018-Jun-20 22:30N 32°24' W 079°35'815.3
2018-Jun-20 22:00N 32°18' W 079°39'1516.9
2018-Jun-20 21:08N 32°10' W 079°54'217.1
2018-Jun-20 21:00N 32°09' W 079°56'917.4
2018-Jun-20 20:30N 32°04' W 080°05'917.3
2018-Jun-20 20:00N 31°60' W 080°13'816.4
2018-Jun-20 19:29N 31°57' W 080°23'816.9
2018-Jun-20 19:00N 31°56' W 080°32'815.3
2018-Jun-20 18:29N 31°58' W 080°42'612.5
2018-Jun-20 18:00N 32°01' W 080°48'611.6
2018-Jun-20 17:28N 32°02' W 080°55'510.2
2018-Jun-20 17:00N 32°05' W 080°59'3 6.9
2018-Jun-20 16:30N 32°05' W 081°03'2 4.4
2018-Jun-20 15:59N 32°05' W 081°06'3 5.6
2018-Jun-20 15:30N 32°07' W 081°08'0 0.0
2018-Jun-19 11:10N 32°08' W 081°08'0 0.1
2018-Jun-19 11:00N 32°08' W 081°08'0 0.5
2018-Jun-19 10:30N 32°08' W 081°08'3 5.3
2018-Jun-19 10:00N 32°06' W 081°06'2 4.0
2018-Jun-19 09:30N 32°05' W 081°04'3 5.5
2018-Jun-19 09:00N 32°06' W 081°01'4 7.3
2018-Jun-19 08:30N 32°04' W 080°57'4 7.9
2018-Jun-19 08:00N 32°02' W 080°53'611.2
2018-Jun-19 07:30N 31°60' W 080°47'612.5
2018-Jun-19 06:59N 31°57' W 080°40'5 9.5
2018-Jun-19 06:30N 31°56' W 080°35'4 8.4
2018-Jun-19 06:00N 31°59' W 080°31'712.9
2018-Jun-19 05:27N 31°58' W 080°22'614.2
2018-Jun-19 05:00N 31°58' W 080°15'714.2
2018-Jun-19 04:29N 31°60' W 080°06'714.4
2018-Jun-19 04:00N 32°00' W 079°58'814.4
2018-Jun-19 03:28N 32°01' W 079°49'1014.4
2018-Jun-19 02:46N 32°03' W 079°37'3114.2
2018-Jun-19 00:37N 32°19' W 079°07'31113.3
2018-Jun-18 01:07N 36°32' W 075°27'715.3
2018-Jun-18 00:39N 36°37' W 075°33'315.2
2018-Jun-18 00:28N 36°39' W 075°35'715.3
2018-Jun-18 00:00N 36°45' W 075°40'611.9
2018-Jun-17 23:30N 36°48' W 075°46'2913.4
2018-Jun-17 21:22N 36°57' W 076°20'2 5.3
2018-Jun-17 21:00N 36°55' W 076°20'0 0.1
2018-Jun-17 20:27N 36°55' W 076°20'0 0.0
2018-Jun-17 20:00N 36°55' W 076°20'0 0.0
2018-Jun-17 19:30N 36°55' W 076°20'0 0.0
2018-Jun-17 19:01N 36°55' W 076°20'0 0.0
2018-Jun-17 18:31N 36°55' W 076°20'0 0.0
2018-Jun-17 15:27N 36°55' W 076°20'0 0.0
2018-Jun-17 15:01N 36°55' W 076°20'0 0.0
2018-Jun-17 12:58N 36°55' W 076°20'0 0.0
2018-Jun-17 12:25N 36°55' W 076°20'0 0.0
2018-Jun-17 12:01N 36°55' W 076°20'0 0.0
2018-Jun-17 11:27N 36°55' W 076°20'0 0.0
2018-Jun-17 10:57N 36°55' W 076°20'0 0.0
2018-Jun-17 09:34N 36°55' W 076°20'0 0.0
2018-Jun-17 09:16N 36°55' W 076°20'0 0.0
2018-Jun-17 07:21N 36°55' W 076°20'0 0.0
2018-Jun-17 06:58N 36°55' W 076°20'0 0.0
2018-Jun-17 06:09N 36°55' W 076°20'0 0.0
2018-Jun-17 06:01N 36°55' W 076°20'0 0.0
2018-Jun-17 05:31N 36°55' W 076°20'0 0.0
2018-Jun-17 05:01N 36°55' W 076°20'0 0.0
2018-Jun-17 04:30N 36°55' W 076°20'0 0.0
2018-Jun-17 04:01N 36°55' W 076°20'0 0.0
2018-Jun-17 03:31N 36°55' W 076°20'0 0.0
2018-Jun-17 03:01N 36°55' W 076°20'0 0.0
2018-Jun-17 02:31N 36°55' W 076°20'0 0.0
2018-Jun-17 02:00N 36°55' W 076°20'0 0.0
2018-Jun-17 01:31N 36°55' W 076°20'0 0.0
2018-Jun-17 01:00N 36°55' W 076°20'1 2.7
2018-Jun-17 00:30N 36°57' W 076°20'1011.6
2018-Jun-16 23:38N 36°59' W 076°08'112 9.3
2018-Jun-16 11:35N 38°04' W 074°13'1213.0
2018-Jun-16 10:39N 38°16' W 074°08'212.9
2018-Jun-16 10:31N 38°18' W 074°07'612.8
2018-Jun-16 10:00N 38°24' W 074°05'612.9
2018-Jun-16 09:31N 38°30' W 074°02'3812.7
2018-Jun-16 06:33N 39°07' W 073°52'113.2
2018-Jun-16 06:27N 39°08' W 073°52'1313.1
2018-Jun-16 05:28N 39°21' W 073°52'612.9
2018-Jun-16 04:59N 39°27' W 073°52'612.9
2018-Jun-16 04:30N 39°33' W 073°52'612.9
2018-Jun-16 04:00N 39°40' W 073°52'612.8
2018-Jun-16 03:30N 39°46' W 073°52'712.7
2018-Jun-16 02:59N 39°53' W 073°51'812.8
2018-Jun-16 02:20N 40°01' W 073°51'2412.8
2018-Jun-16 00:27N 40°25' W 073°49'511.7
2018-Jun-16 00:00N 40°29' W 073°54'714.7
2018-Jun-15 23:31N 40°33' W 074°02'713.1
2018-Jun-15 23:00N 40°39' W 074°04'4 7.0
2018-Jun-15 22:30N 40°39' W 074°09'1 2.9
2018-Jun-15 22:00N 40°40' W 074°09'0 0.1
2018-Jun-15 21:30N 40°40' W 074°09'0 0.0
2018-Jun-15 21:00N 40°40' W 074°09'0 0.0
2018-Jun-15 20:30N 40°40' W 074°09'0 0.0
2018-Jun-15 20:00N 40°40' W 074°09'0 0.0
2018-Jun-15 19:24N 40°40' W 074°09'0 0.0
2018-Jun-15 19:00N 40°40' W 074°09'0 0.0
2018-Jun-15 18:30N 40°40' W 074°09'0 0.0
2018-Jun-15 18:00N 40°40' W 074°09'0 0.0
2018-Jun-15 17:30N 40°40' W 074°09'0 0.0
2018-Jun-15 17:00N 40°40' W 074°09'0 0.0
2018-Jun-15 16:24N 40°40' W 074°09'0 0.0
2018-Jun-15 16:00N 40°40' W 074°09'0 0.0
2018-Jun-15 15:30N 40°40' W 074°09'0 0.0
2018-Jun-15 15:00N 40°40' W 074°09'0 0.0
2018-Jun-15 14:30N 40°40' W 074°09'0 0.0
2018-Jun-15 14:00N 40°40' W 074°09'0 0.0
2018-Jun-15 13:30N 40°40' W 074°09'0 0.0
2018-Jun-15 12:54N 40°40' W 074°09'0 0.0
2018-Jun-15 12:27N 40°40' W 074°09'0 0.0
2018-Jun-15 12:00N 40°40' W 074°09'0 0.0
2018-Jun-15 11:24N 40°40' W 074°09'0 0.0
2018-Jun-15 10:57N 40°40' W 074°09'0 0.0
2018-Jun-15 10:30N 40°40' W 074°09'0 0.0
2018-Jun-15 10:00N 40°40' W 074°09'0 0.0
2018-Jun-15 09:30N 40°40' W 074°09'0 0.0
2018-Jun-15 09:00N 40°40' W 074°09'0 0.0
2018-Jun-15 08:30N 40°40' W 074°09'0 0.0
2018-Jun-15 08:00N 40°40' W 074°09'0 0.0
2018-Jun-15 07:30N 40°40' W 074°09'0 0.0
2018-Jun-15 06:57N 40°40' W 074°09'0 0.0
2018-Jun-15 06:24N 40°40' W 074°09'0 0.0
2018-Jun-15 06:00N 40°40' W 074°09'0 0.0
2018-Jun-15 05:30N 40°40' W 074°09'0 0.0
2018-Jun-15 05:00N 40°40' W 074°09'0 0.0
2018-Jun-15 04:30N 40°40' W 074°09'0 0.0
2018-Jun-15 04:00N 40°40' W 074°09'0 0.0
2018-Jun-15 03:30N 40°40' W 074°09'0 0.0
2018-Jun-15 03:00N 40°40' W 074°09'0 0.0
2018-Jun-15 02:27N 40°40' W 074°09'0 0.0
2018-Jun-15 02:00N 40°40' W 074°09'0 0.0
2018-Jun-15 01:27N 40°40' W 074°09'0 0.0
2018-Jun-15 01:00N 40°40' W 074°09'0 0.0
2018-Jun-15 00:30N 40°40' W 074°09'0 0.0
2018-Jun-15 00:00N 40°40' W 074°09'0 0.0
2018-Jun-14 23:30N 40°40' W 074°09'0 0.0
2018-Jun-14 23:00N 40°40' W 074°09'0 0.0
2018-Jun-14 22:30N 40°40' W 074°09'0 0.0
2018-Jun-14 22:00N 40°40' W 074°09'0 0.0
2018-Jun-14 21:30N 40°40' W 074°09'0 0.0
2018-Jun-14 21:00N 40°40' W 074°09'0 0.0
2018-Jun-14 20:30N 40°40' W 074°09'0 0.0
2018-Jun-14 20:00N 40°40' W 074°09'0 0.0
2018-Jun-14 19:30N 40°40' W 074°09'0 0.0
2018-Jun-14 19:00N 40°40' W 074°09'0 0.0
2018-Jun-14 18:30N 40°40' W 074°09'0 0.0
2018-Jun-14 18:00N 40°40' W 074°09'0 0.0
2018-Jun-14 17:30N 40°40' W 074°09'0 0.0
2018-Jun-14 17:00N 40°40' W 074°09'0 0.1
2018-Jun-14 16:30N 40°40' W 074°09'1 2.9
2018-Jun-14 16:00N 40°39' W 074°08'3 5.7
2018-Jun-14 15:30N 40°39' W 074°04'3 6.4
2018-Jun-14 15:00N 40°36' W 074°02'2 4.9
2018-Jun-14 14:30N 40°34' W 074°02'4 8.2
2018-Jun-14 14:00N 40°31' W 073°58'4 8.9
2018-Jun-14 13:30N 40°29' W 073°53'5 8.6
2018-Jun-14 12:57N 40°27' W 073°47'3 1.0
2018-Jun-14 10:01N 40°29' W 073°46'0 0.3
2018-Jun-14 09:58N 40°29' W 073°46'4 7.7
2018-Jun-14 09:28N 40°28' W 073°42'5 8.9
2018-Jun-14 08:53N 40°28' W 073°35'512.7
2018-Jun-14 08:28N 40°28' W 073°28'  

Dump ship's entire track history